sensor_id;sensor_type;location;lat;lon;timestamp;temperature;humidity
16955;DHT22;8594;52.052;8.354;2023-03-20T00:01:51;10.70;99.90
16955;DHT22;8594;52.052;8.354;2023-03-20T00:04:19;10.50;99.90
16955;DHT22;8594;52.052;8.354;2023-03-20T00:06:46;10.30;99.90
16955;DHT22;8594;52.052;8.354;2023-03-20T00:09:13;10.30;99.90
16955;DHT22;8594;52.052;8.354;2023-03-20T00:11:45;10.20;99.90
16955;DHT22;8594;52.052;8.354;2023-03-20T00:14:15;10.40;99.90
16955;DHT22;8594;52.052;8.354;2023-03-20T00:16:46;10.20;99.90
16955;DHT22;8594;52.052;8.354;2023-03-20T00:19:15;9.90;99.90
16955;DHT22;8594;52.052;8.354;2023-03-20T00:21:45;9.90;99.90
16955;DHT22;8594;52.052;8.354;2023-03-20T00:24:13;9.80;99.90
16955;DHT22;8594;52.052;8.354;2023-03-20T00:26:42;9.70;99.90
16955;DHT22;8594;52.052;8.354;2023-03-20T00:29:16;9.80;99.90
16955;DHT22;8594;52.052;8.354;2023-03-20T00:31:47;9.80;99.90
16955;DHT22;8594;52.052;8.354;2023-03-20T00:34:15;10.10;99.90
16955;DHT22;8594;52.052;8.354;2023-03-20T00:36:45;10.30;99.90
16955;DHT22;8594;52.052;8.354;2023-03-20T00:39:12;10.40;99.90
16955;DHT22;8594;52.052;8.354;2023-03-20T00:41:42;10.50;99.90
16955;DHT22;8594;52.052;8.354;2023-03-20T00:44:19;10.40;99.90
16955;DHT22;8594;52.052;8.354;2023-03-20T00:46:52;10.40;99.90
16955;DHT22;8594;52.052;8.354;2023-03-20T00:49:23;10.30;99.90
16955;DHT22;8594;52.052;8.354;2023-03-20T00:51:53;10.60;99.90
16955;DHT22;8594;52.052;8.354;2023-03-20T00:54:21;10.70;99.90
16955;DHT22;8594;52.052;8.354;2023-03-20T00:56:53;10.70;99.90
16955;DHT22;8594;52.052;8.354;2023-03-20T00:59:24;10.80;99.90
16955;DHT22;8594;52.052;8.354;2023-03-20T01:01:55;11.10;99.90
16955;DHT22;8594;52.052;8.354;2023-03-20T01:04:23;11.00;99.90
16955;DHT22;8594;52.052;8.354;2023-03-20T01:06:49;11.00;99.90
16955;DHT22;8594;52.052;8.354;2023-03-20T01:09:18;11.00;99.90
16955;DHT22;8594;52.052;8.354;2023-03-20T01:11:45;10.90;99.90
16955;DHT22;8594;52.052;8.354;2023-03-20T01:14:13;10.90;99.90
16955;DHT22;8594;52.052;8.354;2023-03-20T01:16:42;10.80;99.90
16955;DHT22;8594;52.052;8.354;2023-03-20T01:19:10;10.60;99.90
16955;DHT22;8594;52.052;8.354;2023-03-20T01:21:39;10.60;99.90
16955;DHT22;8594;52.052;8.354;2023-03-20T01:24:06;10.40;99.90
16955;DHT22;8594;52.052;8.354;2023-03-20T01:26:36;10.30;99.90
16955;DHT22;8594;52.052;8.354;2023-03-20T01:29:15;10.30;99.90
16955;DHT22;8594;52.052;8.354;2023-03-20T01:31:44;10.20;99.90
16955;DHT22;8594;52.052;8.354;2023-03-20T01:34:11;10.10;99.90
16955;DHT22;8594;52.052;8.354;2023-03-20T01:36:39;10.30;99.90
16955;DHT22;8594;52.052;8.354;2023-03-20T01:39:06;10.40;99.90
16955;DHT22;8594;52.052;8.354;2023-03-20T01:41:34;10.40;99.90
16955;DHT22;8594;52.052;8.354;2023-03-20T01:44:15;10.40;99.90
16955;DHT22;8594;52.052;8.354;2023-03-20T01:46:46;10.50;99.90
16955;DHT22;8594;52.052;8.354;2023-03-20T01:52:50;10.70;99.90
16955;DHT22;8594;52.052;8.354;2023-03-20T01:55:19;10.70;99.90
16955;DHT22;8594;52.052;8.354;2023-03-20T01:57:50;10.80;99.90
16955;DHT22;8594;52.052;8.354;2023-03-20T02:00:19;10.90;99.90
16955;DHT22;8594;52.052;8.354;2023-03-20T02:02:48;11.00;99.90
16955;DHT22;8594;52.052;8.354;2023-03-20T02:05:18;11.10;99.90
16955;DHT22;8594;52.052;8.354;2023-03-20T02:07:53;11.00;99.90
16955;DHT22;8594;52.052;8.354;2023-03-20T02:10:27;11.10;99.90
16955;DHT22;8594;52.052;8.354;2023-03-20T02:12:57;11.00;99.90
16955;DHT22;8594;52.052;8.354;2023-03-20T02:15:26;10.90;99.90
16955;DHT22;8594;52.052;8.354;2023-03-20T02:17:55;10.90;99.90
16955;DHT22;8594;52.052;8.354;2023-03-20T02:20:30;10.90;99.90
16955;DHT22;8594;52.052;8.354;2023-03-20T02:23:35;10.90;99.90
16955;DHT22;8594;52.052;8.354;2023-03-20T02:29:44;10.90;99.90
16955;DHT22;8594;52.052;8.354;2023-03-20T02:33:00;11.00;99.90
16955;DHT22;8594;52.052;8.354;2023-03-20T02:36:04;10.90;99.90
16955;DHT22;8594;52.052;8.354;2023-03-20T02:39:14;10.80;99.90
16955;DHT22;8594;52.052;8.354;2023-03-20T02:42:05;10.80;99.90
16955;DHT22;8594;52.052;8.354;2023-03-20T02:44:43;10.70;99.90
16955;DHT22;8594;52.052;8.354;2023-03-20T02:47:21;10.70;99.90
16955;DHT22;8594;52.052;8.354;2023-03-20T02:49:56;10.60;99.90
16955;DHT22;8594;52.052;8.354;2023-03-20T02:52:32;10.70;99.90
16955;DHT22;8594;52.052;8.354;2023-03-20T02:55:14;10.70;99.90
16955;DHT22;8594;52.052;8.354;2023-03-20T02:57:50;10.80;99.90
16955;DHT22;8594;52.052;8.354;2023-03-20T03:00:27;10.80;99.90
16955;DHT22;8594;52.052;8.354;2023-03-20T03:03:05;10.80;99.90
16955;DHT22;8594;52.052;8.354;2023-03-20T03:05:38;10.80;99.90
16955;DHT22;8594;52.052;8.354;2023-03-20T03:08:10;10.90;99.90
16955;DHT22;8594;52.052;8.354;2023-03-20T03:10:44;10.80;99.90
16955;DHT22;8594;52.052;8.354;2023-03-20T03:13:17;10.90;99.90
16955;DHT22;8594;52.052;8.354;2023-03-20T03:15:51;10.90;99.90
16955;DHT22;8594;52.052;8.354;2023-03-20T03:18:23;10.80;99.90
16955;DHT22;8594;52.052;8.354;2023-03-20T03:20:56;10.90;99.90
16955;DHT22;8594;52.052;8.354;2023-03-20T03:23:30;10.70;99.90
16955;DHT22;8594;52.052;8.354;2023-03-20T03:26:01;10.50;99.90
16955;DHT22;8594;52.052;8.354;2023-03-20T03:28:33;10.70;99.90
16955;DHT22;8594;52.052;8.354;2023-03-20T03:31:05;10.70;99.90
16955;DHT22;8594;52.052;8.354;2023-03-20T03:33:34;10.70;99.90
16955;DHT22;8594;52.052;8.354;2023-03-20T03:36:10;10.70;99.90
16955;DHT22;8594;52.052;8.354;2023-03-20T03:38:48;10.80;99.90
16955;DHT22;8594;52.052;8.354;2023-03-20T03:41:26;10.70;99.90
16955;DHT22;8594;52.052;8.354;2023-03-20T03:44:02;10.70;99.90
16955;DHT22;8594;52.052;8.354;2023-03-20T03:46:39;10.50;99.90
16955;DHT22;8594;52.052;8.354;2023-03-20T03:49:15;10.60;99.90
16955;DHT22;8594;52.052;8.354;2023-03-20T03:51:49;10.50;99.90
16955;DHT22;8594;52.052;8.354;2023-03-20T03:54:23;10.60;99.90
16955;DHT22;8594;52.052;8.354;2023-03-20T03:56:55;10.50;99.90
16955;DHT22;8594;52.052;8.354;2023-03-20T03:59:26;10.40;99.90
16955;DHT22;8594;52.052;8.354;2023-03-20T04:01:59;10.40;99.90
16955;DHT22;8594;52.052;8.354;2023-03-20T04:04:29;10.40;99.90
16955;DHT22;8594;52.052;8.354;2023-03-20T04:06:57;10.50;99.90
16955;DHT22;8594;52.052;8.354;2023-03-20T04:09:25;10.60;99.90
16955;DHT22;8594;52.052;8.354;2023-03-20T04:11:53;10.50;99.90
16955;DHT22;8594;52.052;8.354;2023-03-20T04:14:20;10.70;99.90
16955;DHT22;8594;52.052;8.354;2023-03-20T04:16:47;10.40;99.90
16955;DHT22;8594;52.052;8.354;2023-03-20T04:19:14;10.50;99.90
16955;DHT22;8594;52.052;8.354;2023-03-20T04:21:41;10.60;99.90
16955;DHT22;8594;52.052;8.354;2023-03-20T04:24:09;10.70;99.90
16955;DHT22;8594;52.052;8.354;2023-03-20T04:26:36;10.50;99.90
16955;DHT22;8594;52.052;8.354;2023-03-20T04:29:05;10.50;99.90
16955;DHT22;8594;52.052;8.354;2023-03-20T04:31:32;10.30;99.90
16955;DHT22;8594;52.052;8.354;2023-03-20T04:33:59;10.30;99.90
16955;DHT22;8594;52.052;8.354;2023-03-20T04:36:26;10.20;99.90
16955;DHT22;8594;52.052;8.354;2023-03-20T04:38:52;10.30;99.90
16955;DHT22;8594;52.052;8.354;2023-03-20T04:41:19;10.20;99.90
16955;DHT22;8594;52.052;8.354;2023-03-20T04:43:46;10.30;99.90
16955;DHT22;8594;52.052;8.354;2023-03-20T04:46:14;10.30;99.90
16955;DHT22;8594;52.052;8.354;2023-03-20T04:48:41;10.40;99.90
16955;DHT22;8594;52.052;8.354;2023-03-20T04:51:08;10.30;99.90
16955;DHT22;8594;52.052;8.354;2023-03-20T04:53:35;10.30;99.90
16955;DHT22;8594;52.052;8.354;2023-03-20T04:56:03;10.20;99.90
16955;DHT22;8594;52.052;8.354;2023-03-20T04:58:30;10.10;99.90
16955;DHT22;8594;52.052;8.354;2023-03-20T05:00:57;10.10;99.90
16955;DHT22;8594;52.052;8.354;2023-03-20T05:03:25;10.10;99.90
16955;DHT22;8594;52.052;8.354;2023-03-20T05:05:51;10.00;99.90
16955;DHT22;8594;52.052;8.354;2023-03-20T05:08:18;10.10;99.90
16955;DHT22;8594;52.052;8.354;2023-03-20T05:10:45;10.00;99.90
16955;DHT22;8594;52.052;8.354;2023-03-20T05:13:12;9.80;99.90
16955;DHT22;8594;52.052;8.354;2023-03-20T05:15:39;9.90;99.90
16955;DHT22;8594;52.052;8.354;2023-03-20T05:18:06;10.00;99.90
16955;DHT22;8594;52.052;8.354;2023-03-20T05:20:35;10.00;99.90
16955;DHT22;8594;52.052;8.354;2023-03-20T05:23:02;10.00;99.90
16955;DHT22;8594;52.052;8.354;2023-03-20T05:25:29;10.10;99.90
16955;DHT22;8594;52.052;8.354;2023-03-20T05:27:56;10.20;99.90
16955;DHT22;8594;52.052;8.354;2023-03-20T05:30:23;10.20;99.90
16955;DHT22;8594;52.052;8.354;2023-03-20T05:32:50;10.20;99.90
16955;DHT22;8594;52.052;8.354;2023-03-20T05:35:18;10.20;99.90
16955;DHT22;8594;52.052;8.354;2023-03-20T05:37:46;10.10;99.90
16955;DHT22;8594;52.052;8.354;2023-03-20T05:40:14;10.10;99.90
16955;DHT22;8594;52.052;8.354;2023-03-20T05:42:44;10.00;99.90
16955;DHT22;8594;52.052;8.354;2023-03-20T05:45:11;10.00;99.90
16955;DHT22;8594;52.052;8.354;2023-03-20T05:47:39;9.90;99.90
16955;DHT22;8594;52.052;8.354;2023-03-20T05:50:08;9.90;99.90
16955;DHT22;8594;52.052;8.354;2023-03-20T05:52:35;10.00;99.90
16955;DHT22;8594;52.052;8.354;2023-03-20T05:55:04;9.90;99.90
16955;DHT22;8594;52.052;8.354;2023-03-20T05:57:31;10.00;99.90
16955;DHT22;8594;52.052;8.354;2023-03-20T05:59:58;10.10;99.90
16955;DHT22;8594;52.052;8.354;2023-03-20T06:02:25;10.00;99.90
16955;DHT22;8594;52.052;8.354;2023-03-20T06:04:52;10.00;99.90
16955;DHT22;8594;52.052;8.354;2023-03-20T06:07:19;9.90;99.90
16955;DHT22;8594;52.052;8.354;2023-03-20T06:09:46;10.00;99.90
16955;DHT22;8594;52.052;8.354;2023-03-20T06:12:14;10.00;99.90
16955;DHT22;8594;52.052;8.354;2023-03-20T06:14:41;10.00;99.90
16955;DHT22;8594;52.052;8.354;2023-03-20T06:17:08;10.00;99.90
16955;DHT22;8594;52.052;8.354;2023-03-20T06:19:35;9.90;99.90
16955;DHT22;8594;52.052;8.354;2023-03-20T06:22:03;10.10;99.90
16955;DHT22;8594;52.052;8.354;2023-03-20T06:24:30;10.10;99.90
16955;DHT22;8594;52.052;8.354;2023-03-20T06:26:57;10.10;99.90
16955;DHT22;8594;52.052;8.354;2023-03-20T06:29:26;10.10;99.90
16955;DHT22;8594;52.052;8.354;2023-03-20T06:31:53;10.10;99.90
16955;DHT22;8594;52.052;8.354;2023-03-20T06:34:20;10.10;99.90
16955;DHT22;8594;52.052;8.354;2023-03-20T06:36:47;10.20;99.90
16955;DHT22;8594;52.052;8.354;2023-03-20T06:39:14;10.20;99.90
16955;DHT22;8594;52.052;8.354;2023-03-20T06:41:41;10.10;99.90
16955;DHT22;8594;52.052;8.354;2023-03-20T06:44:07;10.10;99.90
16955;DHT22;8594;52.052;8.354;2023-03-20T06:46:36;10.10;99.90
16955;DHT22;8594;52.052;8.354;2023-03-20T06:49:03;9.80;99.90
16955;DHT22;8594;52.052;8.354;2023-03-20T06:51:30;10.00;99.90
16955;DHT22;8594;52.052;8.354;2023-03-20T06:53:57;10.10;99.90
16955;DHT22;8594;52.052;8.354;2023-03-20T06:56:24;10.00;99.90
16955;DHT22;8594;52.052;8.354;2023-03-20T06:58:51;10.00;99.90
16955;DHT22;8594;52.052;8.354;2023-03-20T07:01:17;10.00;99.90
16955;DHT22;8594;52.052;8.354;2023-03-20T07:03:46;10.10;99.90
16955;DHT22;8594;52.052;8.354;2023-03-20T07:06:13;10.40;99.90
16955;DHT22;8594;52.052;8.354;2023-03-20T07:08:40;10.50;99.90
16955;DHT22;8594;52.052;8.354;2023-03-20T07:11:06;10.30;99.90
16955;DHT22;8594;52.052;8.354;2023-03-20T07:13:34;10.40;99.90
16955;DHT22;8594;52.052;8.354;2023-03-20T07:16:03;10.50;99.90
16955;DHT22;8594;52.052;8.354;2023-03-20T07:18:30;10.30;99.90
16955;DHT22;8594;52.052;8.354;2023-03-20T07:21:00;10.30;99.90
16955;DHT22;8594;52.052;8.354;2023-03-20T07:23:29;10.30;99.90
16955;DHT22;8594;52.052;8.354;2023-03-20T07:25:58;10.20;99.90
16955;DHT22;8594;52.052;8.354;2023-03-20T07:28:25;10.30;99.90
16955;DHT22;8594;52.052;8.354;2023-03-20T07:30:52;10.40;99.90
16955;DHT22;8594;52.052;8.354;2023-03-20T07:33:19;10.40;99.90
16955;DHT22;8594;52.052;8.354;2023-03-20T07:35:50;10.40;99.90
16955;DHT22;8594;52.052;8.354;2023-03-20T07:38:19;10.50;99.90
16955;DHT22;8594;52.052;8.354;2023-03-20T07:40:46;10.20;99.90
16955;DHT22;8594;52.052;8.354;2023-03-20T07:43:13;10.40;99.90
16955;DHT22;8594;52.052;8.354;2023-03-20T07:45:40;10.60;99.90
16955;DHT22;8594;52.052;8.354;2023-03-20T07:48:07;10.50;99.90
16955;DHT22;8594;52.052;8.354;2023-03-20T07:50:34;10.40;99.90
16955;DHT22;8594;52.052;8.354;2023-03-20T07:53:01;10.40;99.90
16955;DHT22;8594;52.052;8.354;2023-03-20T07:55:29;10.50;99.90
16955;DHT22;8594;52.052;8.354;2023-03-20T07:57:56;10.60;99.90
16955;DHT22;8594;52.052;8.354;2023-03-20T08:00:23;10.70;99.90
16955;DHT22;8594;52.052;8.354;2023-03-20T08:02:50;10.60;99.90
16955;DHT22;8594;52.052;8.354;2023-03-20T08:05:16;10.60;99.90
16955;DHT22;8594;52.052;8.354;2023-03-20T08:07:43;10.60;99.90
16955;DHT22;8594;52.052;8.354;2023-03-20T08:10:10;10.50;99.90
16955;DHT22;8594;52.052;8.354;2023-03-20T08:12:39;10.40;99.90
16955;DHT22;8594;52.052;8.354;2023-03-20T08:15:06;10.60;99.90
16955;DHT22;8594;52.052;8.354;2023-03-20T08:17:34;10.80;99.90
16955;DHT22;8594;52.052;8.354;2023-03-20T08:20:00;10.90;99.90
16955;DHT22;8594;52.052;8.354;2023-03-20T08:22:28;10.90;99.90
16955;DHT22;8594;52.052;8.354;2023-03-20T08:24:54;11.00;99.90
16955;DHT22;8594;52.052;8.354;2023-03-20T08:27:21;11.00;99.90
16955;DHT22;8594;52.052;8.354;2023-03-20T08:29:50;11.00;99.90
16955;DHT22;8594;52.052;8.354;2023-03-20T08:32:17;11.10;99.90
16955;DHT22;8594;52.052;8.354;2023-03-20T08:34:45;11.30;99.90
16955;DHT22;8594;52.052;8.354;2023-03-20T08:37:12;11.60;99.90
16955;DHT22;8594;52.052;8.354;2023-03-20T08:39:40;11.50;99.90
16955;DHT22;8594;52.052;8.354;2023-03-20T08:42:07;11.50;99.90
16955;DHT22;8594;52.052;8.354;2023-03-20T08:44:34;11.50;99.90
16955;DHT22;8594;52.052;8.354;2023-03-20T08:47:02;11.60;99.90
16955;DHT22;8594;52.052;8.354;2023-03-20T08:49:30;11.50;99.90
16955;DHT22;8594;52.052;8.354;2023-03-20T08:51:57;11.60;99.90
16955;DHT22;8594;52.052;8.354;2023-03-20T08:54:25;11.70;99.90
16955;DHT22;8594;52.052;8.354;2023-03-20T08:56:52;11.70;99.90
16955;DHT22;8594;52.052;8.354;2023-03-20T08:59:19;11.50;99.90
16955;DHT22;8594;52.052;8.354;2023-03-20T09:01:46;11.20;99.90
16955;DHT22;8594;52.052;8.354;2023-03-20T09:04:14;11.40;99.90
16955;DHT22;8594;52.052;8.354;2023-03-20T09:06:41;11.30;99.90
16955;DHT22;8594;52.052;8.354;2023-03-20T09:09:08;11.20;99.90
16955;DHT22;8594;52.052;8.354;2023-03-20T09:11:35;11.20;99.90
16955;DHT22;8594;52.052;8.354;2023-03-20T09:14:02;11.40;99.90
16955;DHT22;8594;52.052;8.354;2023-03-20T09:16:29;11.50;99.90
16955;DHT22;8594;52.052;8.354;2023-03-20T09:18:56;11.90;99.90
16955;DHT22;8594;52.052;8.354;2023-03-20T09:21:24;12.00;99.90
16955;DHT22;8594;52.052;8.354;2023-03-20T09:23:51;11.90;99.90
16955;DHT22;8594;52.052;8.354;2023-03-20T09:26:18;12.00;99.90
16955;DHT22;8594;52.052;8.354;2023-03-20T09:28:44;11.90;99.90
16955;DHT22;8594;52.052;8.354;2023-03-20T09:31:11;11.90;99.90
16955;DHT22;8594;52.052;8.354;2023-03-20T09:33:38;11.70;99.90
16955;DHT22;8594;52.052;8.354;2023-03-20T09:36:06;11.50;99.90
16955;DHT22;8594;52.052;8.354;2023-03-20T09:38:37;11.50;99.90
16955;DHT22;8594;52.052;8.354;2023-03-20T09:41:09;11.40;99.90
16955;DHT22;8594;52.052;8.354;2023-03-20T09:43:50;11.30;99.90
16955;DHT22;8594;52.052;8.354;2023-03-20T09:46:40;11.40;99.90
16955;DHT22;8594;52.052;8.354;2023-03-20T09:49:36;11.70;99.90
16955;DHT22;8594;52.052;8.354;2023-03-20T09:52:17;11.80;99.90
16955;DHT22;8594;52.052;8.354;2023-03-20T09:54:50;11.80;99.90
16955;DHT22;8594;52.052;8.354;2023-03-20T09:57:23;11.90;99.90
16955;DHT22;8594;52.052;8.354;2023-03-20T09:59:56;11.80;99.90
16955;DHT22;8594;52.052;8.354;2023-03-20T10:02:37;11.70;99.90
16955;DHT22;8594;52.052;8.354;2023-03-20T10:05:18;11.60;99.90
16955;DHT22;8594;52.052;8.354;2023-03-20T10:07:48;11.70;99.90
16955;DHT22;8594;52.052;8.354;2023-03-20T10:10:17;11.60;99.90
16955;DHT22;8594;52.052;8.354;2023-03-20T10:13:00;11.70;99.90
16955;DHT22;8594;52.052;8.354;2023-03-20T10:15:44;11.90;99.90
16955;DHT22;8594;52.052;8.354;2023-03-20T10:18:21;12.10;99.90
16955;DHT22;8594;52.052;8.354;2023-03-20T10:20:55;12.20;99.90
16955;DHT22;8594;52.052;8.354;2023-03-20T10:23:32;12.10;99.90
16955;DHT22;8594;52.052;8.354;2023-03-20T10:26:06;12.20;99.90
16955;DHT22;8594;52.052;8.354;2023-03-20T10:28:42;12.30;99.90
16955;DHT22;8594;52.052;8.354;2023-03-20T10:31:26;12.20;99.90
16955;DHT22;8594;52.052;8.354;2023-03-20T10:34:14;12.10;99.90
16955;DHT22;8594;52.052;8.354;2023-03-20T10:37:00;11.90;99.90
16955;DHT22;8594;52.052;8.354;2023-03-20T10:39:48;11.80;99.90
16955;DHT22;8594;52.052;8.354;2023-03-20T10:42:27;11.70;99.90
16955;DHT22;8594;52.052;8.354;2023-03-20T10:44:59;11.60;99.90
16955;DHT22;8594;52.052;8.354;2023-03-20T10:47:33;11.70;99.90
16955;DHT22;8594;52.052;8.354;2023-03-20T10:50:07;11.80;99.90
16955;DHT22;8594;52.052;8.354;2023-03-20T10:52:39;11.60;99.90
16955;DHT22;8594;52.052;8.354;2023-03-20T10:55:11;11.70;99.90
16955;DHT22;8594;52.052;8.354;2023-03-20T10:57:47;11.90;99.90
16955;DHT22;8594;52.052;8.354;2023-03-20T11:00:21;12.00;99.90
16955;DHT22;8594;52.052;8.354;2023-03-20T11:02:50;12.10;99.90
16955;DHT22;8594;52.052;8.354;2023-03-20T11:05:22;11.90;99.90
16955;DHT22;8594;52.052;8.354;2023-03-20T11:08:01;12.00;99.90
16955;DHT22;8594;52.052;8.354;2023-03-20T11:10:31;12.20;99.90
16955;DHT22;8594;52.052;8.354;2023-03-20T11:13:12;12.50;99.90
16955;DHT22;8594;52.052;8.354;2023-03-20T11:15:43;12.40;99.90
16955;DHT22;8594;52.052;8.354;2023-03-20T11:18:12;12.50;99.90
16955;DHT22;8594;52.052;8.354;2023-03-20T11:20:45;12.60;99.90
16955;DHT22;8594;52.052;8.354;2023-03-20T11:23:15;12.60;99.90
16955;DHT22;8594;52.052;8.354;2023-03-20T11:25:49;12.60;99.90
16955;DHT22;8594;52.052;8.354;2023-03-20T11:28:24;12.30;99.90
16955;DHT22;8594;52.052;8.354;2023-03-20T11:30:58;12.20;99.90
16955;DHT22;8594;52.052;8.354;2023-03-20T11:33:28;12.40;99.90
16955;DHT22;8594;52.052;8.354;2023-03-20T11:35:56;12.60;99.90
16955;DHT22;8594;52.052;8.354;2023-03-20T11:38:24;12.60;99.90
16955;DHT22;8594;52.052;8.354;2023-03-20T11:40:52;12.50;99.90
16955;DHT22;8594;52.052;8.354;2023-03-20T11:43:23;12.40;99.90
16955;DHT22;8594;52.052;8.354;2023-03-20T11:45:55;12.80;99.90
16955;DHT22;8594;52.052;8.354;2023-03-20T11:48:25;12.70;99.90
16955;DHT22;8594;52.052;8.354;2023-03-20T11:51:04;12.30;99.90
16955;DHT22;8594;52.052;8.354;2023-03-20T11:53:35;12.60;99.90
16955;DHT22;8594;52.052;8.354;2023-03-20T11:56:08;12.90;99.90
16955;DHT22;8594;52.052;8.354;2023-03-20T11:58:48;13.00;99.90
16955;DHT22;8594;52.052;8.354;2023-03-20T12:01:20;13.30;99.90
16955;DHT22;8594;52.052;8.354;2023-03-20T12:03:50;13.20;99.90
16955;DHT22;8594;52.052;8.354;2023-03-20T12:06:21;13.10;99.90
16955;DHT22;8594;52.052;8.354;2023-03-20T12:08:54;13.10;99.90
16955;DHT22;8594;52.052;8.354;2023-03-20T12:11:42;13.10;99.90
16955;DHT22;8594;52.052;8.354;2023-03-20T12:14:20;12.80;99.90
16955;DHT22;8594;52.052;8.354;2023-03-20T12:16:57;13.20;99.90
16955;DHT22;8594;52.052;8.354;2023-03-20T12:19:38;13.50;99.90
16955;DHT22;8594;52.052;8.354;2023-03-20T12:22:11;13.70;99.90
16955;DHT22;8594;52.052;8.354;2023-03-20T12:24:49;13.40;99.90
16955;DHT22;8594;52.052;8.354;2023-03-20T12:27:25;13.30;99.90
16955;DHT22;8594;52.052;8.354;2023-03-20T12:29:59;13.20;99.90
16955;DHT22;8594;52.052;8.354;2023-03-20T12:32:35;13.00;99.90
16955;DHT22;8594;52.052;8.354;2023-03-20T12:35:12;13.00;99.90
16955;DHT22;8594;52.052;8.354;2023-03-20T12:37:43;12.90;99.90
16955;DHT22;8594;52.052;8.354;2023-03-20T12:40:13;13.10;99.90
16955;DHT22;8594;52.052;8.354;2023-03-20T12:42:52;12.90;99.90
16955;DHT22;8594;52.052;8.354;2023-03-20T12:45:32;12.50;99.90
16955;DHT22;8594;52.052;8.354;2023-03-20T12:48:14;12.30;99.90
16955;DHT22;8594;52.052;8.354;2023-03-20T12:51:01;12.20;99.90
16955;DHT22;8594;52.052;8.354;2023-03-20T12:53:44;12.30;99.90
16955;DHT22;8594;52.052;8.354;2023-03-20T12:56:27;12.50;99.90
16955;DHT22;8594;52.052;8.354;2023-03-20T12:59:04;12.20;99.90
16955;DHT22;8594;52.052;8.354;2023-03-20T13:01:44;12.10;99.90
16955;DHT22;8594;52.052;8.354;2023-03-20T13:04:41;12.10;99.90
16955;DHT22;8594;52.052;8.354;2023-03-20T13:07:19;12.20;99.90
16955;DHT22;8594;52.052;8.354;2023-03-20T13:10:07;12.30;99.90
16955;DHT22;8594;52.052;8.354;2023-03-20T13:12:53;12.40;99.90
16955;DHT22;8594;52.052;8.354;2023-03-20T13:15:46;12.40;99.90
16955;DHT22;8594;52.052;8.354;2023-03-20T13:18:24;12.30;99.90
16955;DHT22;8594;52.052;8.354;2023-03-20T13:21:07;12.30;99.90
16955;DHT22;8594;52.052;8.354;2023-03-20T13:23:43;12.10;99.90
16955;DHT22;8594;52.052;8.354;2023-03-20T13:26:26;11.90;99.90
16955;DHT22;8594;52.052;8.354;2023-03-20T13:29:03;12.10;99.90
16955;DHT22;8594;52.052;8.354;2023-03-20T13:31:47;12.20;99.90
16955;DHT22;8594;52.052;8.354;2023-03-20T13:34:28;12.20;99.90
16955;DHT22;8594;52.052;8.354;2023-03-20T13:37:12;12.20;99.90
16955;DHT22;8594;52.052;8.354;2023-03-20T13:39:45;12.30;99.90
16955;DHT22;8594;52.052;8.354;2023-03-20T13:42:20;12.30;99.90
16955;DHT22;8594;52.052;8.354;2023-03-20T13:44:53;12.30;99.90
16955;DHT22;8594;52.052;8.354;2023-03-20T13:47:26;12.20;99.90
16955;DHT22;8594;52.052;8.354;2023-03-20T13:49:59;12.20;99.90
16955;DHT22;8594;52.052;8.354;2023-03-20T13:52:53;12.10;99.90
16955;DHT22;8594;52.052;8.354;2023-03-20T13:55:33;12.10;99.90
16955;DHT22;8594;52.052;8.354;2023-03-20T13:58:18;12.20;99.90
16955;DHT22;8594;52.052;8.354;2023-03-20T14:01:16;12.30;99.90
16955;DHT22;8594;52.052;8.354;2023-03-20T14:03:47;12.20;99.90
16955;DHT22;8594;52.052;8.354;2023-03-20T14:06:49;12.20;99.90
16955;DHT22;8594;52.052;8.354;2023-03-20T14:09:30;12.10;99.90
16955;DHT22;8594;52.052;8.354;2023-03-20T14:12:01;12.20;99.90
16955;DHT22;8594;52.052;8.354;2023-03-20T14:14:39;12.50;99.90
16955;DHT22;8594;52.052;8.354;2023-03-20T14:17:15;12.20;99.90
16955;DHT22;8594;52.052;8.354;2023-03-20T14:19:45;12.20;99.90
16955;DHT22;8594;52.052;8.354;2023-03-20T14:22:18;12.30;99.90
16955;DHT22;8594;52.052;8.354;2023-03-20T14:24:55;12.60;99.90
16955;DHT22;8594;52.052;8.354;2023-03-20T14:27:26;12.50;99.90
16955;DHT22;8594;52.052;8.354;2023-03-20T14:29:54;12.30;99.90
16955;DHT22;8594;52.052;8.354;2023-03-20T14:32:31;12.30;99.90
16955;DHT22;8594;52.052;8.354;2023-03-20T14:35:20;12.20;99.90
16955;DHT22;8594;52.052;8.354;2023-03-20T14:38:07;11.90;99.90
16955;DHT22;8594;52.052;8.354;2023-03-20T14:40:48;12.00;99.90
16955;DHT22;8594;52.052;8.354;2023-03-20T14:43:37;12.00;99.90
16955;DHT22;8594;52.052;8.354;2023-03-20T14:46:17;12.20;99.90
16955;DHT22;8594;52.052;8.354;2023-03-20T14:48:52;12.10;99.90
16955;DHT22;8594;52.052;8.354;2023-03-20T14:51:30;12.10;99.90
16955;DHT22;8594;52.052;8.354;2023-03-20T14:54:26;11.90;99.90
16955;DHT22;8594;52.052;8.354;2023-03-20T14:56:55;11.90;99.90
16955;DHT22;8594;52.052;8.354;2023-03-20T14:59:34;12.10;99.90
16955;DHT22;8594;52.052;8.354;2023-03-20T15:02:02;12.10;99.90
16955;DHT22;8594;52.052;8.354;2023-03-20T15:04:33;12.10;99.90
16955;DHT22;8594;52.052;8.354;2023-03-20T15:07:05;11.80;99.90
16955;DHT22;8594;52.052;8.354;2023-03-20T15:09:41;11.50;99.90
16955;DHT22;8594;52.052;8.354;2023-03-20T15:12:11;11.60;99.90
16955;DHT22;8594;52.052;8.354;2023-03-20T15:14:44;11.60;99.90
16955;DHT22;8594;52.052;8.354;2023-03-20T15:17:17;11.60;99.90
16955;DHT22;8594;52.052;8.354;2023-03-20T15:19:46;11.60;99.90
16955;DHT22;8594;52.052;8.354;2023-03-20T15:22:15;11.60;99.90
16955;DHT22;8594;52.052;8.354;2023-03-20T15:24:52;11.50;99.90
16955;DHT22;8594;52.052;8.354;2023-03-20T15:27:22;11.50;99.90
16955;DHT22;8594;52.052;8.354;2023-03-20T15:29:54;11.60;99.90
16955;DHT22;8594;52.052;8.354;2023-03-20T15:32:23;11.60;99.90
16955;DHT22;8594;52.052;8.354;2023-03-20T15:34:50;11.40;99.90
16955;DHT22;8594;52.052;8.354;2023-03-20T15:37:20;11.40;99.90
16955;DHT22;8594;52.052;8.354;2023-03-20T15:39:52;11.50;99.90
16955;DHT22;8594;52.052;8.354;2023-03-20T15:42:23;11.60;99.90
16955;DHT22;8594;52.052;8.354;2023-03-20T15:44:52;11.60;99.90
16955;DHT22;8594;52.052;8.354;2023-03-20T15:47:22;11.60;99.90
16955;DHT22;8594;52.052;8.354;2023-03-20T15:49:52;11.50;99.90
16955;DHT22;8594;52.052;8.354;2023-03-20T15:52:29;11.50;99.90
16955;DHT22;8594;52.052;8.354;2023-03-20T15:55:03;11.60;99.90
16955;DHT22;8594;52.052;8.354;2023-03-20T15:57:34;11.60;99.90
16955;DHT22;8594;52.052;8.354;2023-03-20T16:00:05;11.70;99.90
16955;DHT22;8594;52.052;8.354;2023-03-20T16:02:35;11.70;99.90
16955;DHT22;8594;52.052;8.354;2023-03-20T16:05:03;11.60;99.90
16955;DHT22;8594;52.052;8.354;2023-03-20T16:07:34;11.60;99.90
16955;DHT22;8594;52.052;8.354;2023-03-20T16:10:15;11.20;99.90
16955;DHT22;8594;52.052;8.354;2023-03-20T16:12:46;11.30;99.90
16955;DHT22;8594;52.052;8.354;2023-03-20T16:15:16;11.30;99.90
16955;DHT22;8594;52.052;8.354;2023-03-20T16:17:44;11.30;99.90
16955;DHT22;8594;52.052;8.354;2023-03-20T16:20:13;11.10;99.90
16955;DHT22;8594;52.052;8.354;2023-03-20T16:22:42;11.20;99.90
16955;DHT22;8594;52.052;8.354;2023-03-20T16:25:14;11.20;99.90
16955;DHT22;8594;52.052;8.354;2023-03-20T16:27:44;11.10;99.90